Time;durP1;ratioP1;P1;durP2;ratioP2;P2;SDS_P1;SDS_P2;PMS_P1;PMS_P2;Temp;Humidity;BMP_temperature;BMP_pressure;BME280_temperature;BME280_humidity;BME280_pressure;Samples;Min_cycle;Max_cycle;Signal;HPM_P1;HPM_P2
2019/08/30 00:11:15;;;;;;;8.25;7.5;;;;;;;16.64;97.46777;95786.31;;;;
2019/08/30 00:12:27;;;;;;;8.25;7.5;;;;;;;16.64;97.46777;95786.31;;;;
2019/08/30 00:13:33;;;;;;;8.25;7.5;;;;;;;16.64;97.46777;95786.31;;;;
2019/08/30 00:14:34;;;;;;;8.25;7.5;;;;;;;16.64;97.46777;95786.31;;;;
2019/08/30 00:15:36;;;;;;;8.25;7.5;;;;;;;16.64;97.46777;95786.31;;;;
2019/08/30 00:16:37;;;;;;;8.35;7.5;;;;;;;16.55;97.87988;95788.28;;;;
2019/08/30 00:17:39;;;;;;;8.35;7.5;;;;;;;16.55;97.87988;95788.28;;;;
2019/08/30 00:18:40;;;;;;;8.35;7.5;;;;;;;16.55;97.87988;95788.28;;;;
2019/08/30 00:19:41;;;;;;;8.35;7.5;;;;;;;16.55;97.87988;95788.28;;;;
2019/08/30 00:20:42;;;;;;;8.35;7.5;;;;;;;16.55;97.87988;95788.28;;;;
2019/08/30 00:21:44;;;;;;;8.35;7.5;;;;;;;16.55;97.87988;95788.28;;;;
2019/08/30 00:22:45;;;;;;;8.35;7.5;;;;;;;16.55;97.87988;95788.28;;;;
2019/08/30 00:23:46;;;;;;;8.35;7.5;;;;;;;16.55;97.87988;95788.28;;;;
2019/08/30 00:24:47;;;;;;;8.35;7.5;;;;;;;16.55;97.87988;95788.28;;;;
2019/08/30 00:25:48;;;;;;;8.35;7.5;;;;;;;16.55;97.87988;95788.28;;;;
2019/08/30 00:26:51;;;;;;;8.35;7.5;;;;;;;16.55;97.87988;95788.28;;;;
2019/08/30 00:27:52;;;;;;;7.9;7.150001;;;;;;;16.55;98.49609;95784.61;;;;
2019/08/30 00:28:53;;;;;;;7.9;7.150001;;;;;;;16.55;98.49609;95784.61;;;;
2019/08/30 00:29:54;;;;;;;7.9;7.150001;;;;;;;16.55;98.49609;95784.61;;;;
2019/08/30 00:30:56;;;;;;;7.9;7.150001;;;;;;;16.55;98.49609;95784.61;;;;
2019/08/30 00:31:57;;;;;;;7.9;7.150001;;;;;;;16.55;98.49609;95784.61;;;;
2019/08/30 00:32:58;;;;;;;7.9;7.150001;;;;;;;16.55;98.49609;95784.61;;;;
2019/08/30 00:33:59;;;;;;;7.9;7.150001;;;;;;;16.55;98.49609;95784.61;;;;
2019/08/30 00:35:01;;;;;;;7.9;7.150001;;;;;;;16.55;98.49609;95784.61;;;;
2019/08/30 00:36:02;;;;;;;7.9;7.150001;;;;;;;16.55;98.49609;95784.61;;;;
2019/08/30 00:37:04;;;;;;;7.9;7.150001;;;;;;;16.55;98.49609;95784.61;;;;
2019/08/30 00:38:05;;;;;;;7.849999;6.95;;;;;;;16.55;98.82715;95779.32;;;;
2019/08/30 00:39:06;;;;;;;7.849999;6.95;;;;;;;16.55;98.82715;95779.32;;;;
2019/08/30 00:40:08;;;;;;;7.849999;6.95;;;;;;;16.55;98.82715;95779.32;;;;
2019/08/30 00:41:10;;;;;;;7.849999;6.95;;;;;;;16.55;98.82715;95779.32;;;;
2019/08/30 00:42:11;;;;;;;7.849999;6.95;;;;;;;16.55;98.82715;95779.32;;;;
2019/08/30 00:43:12;;;;;;;7.849999;6.95;;;;;;;16.55;98.82715;95779.32;;;;
2019/08/30 00:44:13;;;;;;;7.849999;6.95;;;;;;;16.55;98.82715;95779.32;;;;
2019/08/30 00:45:15;;;;;;;7.849999;6.95;;;;;;;16.55;98.82715;95779.32;;;;
2019/08/30 00:46:16;;;;;;;7.849999;6.95;;;;;;;16.55;98.82715;95779.32;;;;
2019/08/30 00:47:17;;;;;;;7.849999;6.95;;;;;;;16.55;98.82715;95779.32;;;;
2019/08/30 00:48:19;;;;;;;7.849999;6.95;;;;;;;16.55;98.82715;95779.32;;;;
2019/08/30 00:49:20;;;;;;;8.75;7.2;;;;;;;16.54;99.04102;95765.26;;;;
2019/08/30 00:50:21;;;;;;;8.75;7.2;;;;;;;16.54;99.04102;95765.26;;;;
2019/08/30 00:51:23;;;;;;;8.75;7.2;;;;;;;16.54;99.04102;95765.26;;;;
2019/08/30 00:52:24;;;;;;;8.75;7.2;;;;;;;16.54;99.04102;95765.26;;;;
2019/08/30 00:53:25;;;;;;;8.75;7.2;;;;;;;16.54;99.04102;95765.26;;;;
2019/08/30 00:54:26;;;;;;;8.75;7.2;;;;;;;16.54;99.04102;95765.26;;;;
2019/08/30 00:55:28;;;;;;;8.75;7.2;;;;;;;16.54;99.04102;95765.26;;;;
2019/08/30 00:56:29;;;;;;;8.75;7.2;;;;;;;16.54;99.04102;95765.26;;;;
2019/08/30 00:57:30;;;;;;;8.75;7.2;;;;;;;16.54;99.04102;95765.26;;;;
2019/08/30 00:58:31;;;;;;;8.75;7.2;;;;;;;16.54;99.04102;95765.26;;;;
2019/08/30 00:59:33;;;;;;;7.9;7.1;;;;;;;16.46;99.34473;95775.39;;;;
2019/08/30 01:00:34;;;;;;;7.9;7.1;;;;;;;16.46;99.34473;95775.39;;;;
2019/08/30 01:01:36;;;;;;;7.9;7.1;;;;;;;16.46;99.34473;95775.39;;;;
2019/08/30 01:02:37;;;;;;;7.9;7.1;;;;;;;16.46;99.34473;95775.39;;;;
2019/08/30 01:03:39;;;;;;;7.9;7.1;;;;;;;16.46;99.34473;95775.39;;;;
2019/08/30 01:04:40;;;;;;;7.9;7.1;;;;;;;16.46;99.34473;95775.39;;;;
2019/08/30 01:05:42;;;;;;;7.9;7.1;;;;;;;16.46;99.34473;95775.39;;;;
2019/08/30 01:06:43;;;;;;;7.9;7.1;;;;;;;16.46;99.34473;95775.39;;;;
2019/08/30 01:07:44;;;;;;;7.9;7.1;;;;;;;16.46;99.34473;95775.39;;;;
2019/08/30 01:08:46;;;;;;;7.9;7.1;;;;;;;16.46;99.34473;95775.39;;;;
2019/08/30 01:09:47;;;;;;;9.050001;7.649999;;;;;;;16.41;99.74121;95771.23;;;;
2019/08/30 01:10:48;;;;;;;9.050001;7.649999;;;;;;;16.41;99.74121;95771.23;;;;
2019/08/30 01:11:50;;;;;;;9.050001;7.649999;;;;;;;16.41;99.74121;95771.23;;;;
2019/08/30 01:12:51;;;;;;;9.050001;7.649999;;;;;;;16.41;99.74121;95771.23;;;;
2019/08/30 01:13:53;;;;;;;9.050001;7.649999;;;;;;;16.41;99.74121;95771.23;;;;
2019/08/30 01:14:54;;;;;;;9.050001;7.649999;;;;;;;16.41;99.74121;95771.23;;;;
2019/08/30 01:15:55;;;;;;;9.050001;7.649999;;;;;;;16.41;99.74121;95771.23;;;;
2019/08/30 01:16:56;;;;;;;9.050001;7.649999;;;;;;;16.41;99.74121;95771.23;;;;
2019/08/30 01:17:57;;;;;;;9.050001;7.649999;;;;;;;16.41;99.74121;95771.23;;;;
2019/08/30 01:18:59;;;;;;;9.050001;7.649999;;;;;;;16.41;99.74121;95771.23;;;;
2019/08/30 01:20:00;;;;;;;9.050001;7.649999;;;;;;;16.41;99.74121;95771.23;;;;
2019/08/30 01:21:03;;;;;;;8.050001;7.249999;;;;;;;16.32;100;95762.3;;;;
2019/08/30 01:22:05;;;;;;;8.050001;7.249999;;;;;;;16.32;100;95762.3;;;;
2019/08/30 01:23:06;;;;;;;8.050001;7.249999;;;;;;;16.32;100;95762.3;;;;
2019/08/30 01:24:08;;;;;;;8.050001;7.249999;;;;;;;16.32;100;95762.3;;;;
2019/08/30 01:25:09;;;;;;;8.050001;7.249999;;;;;;;16.32;100;95762.3;;;;
2019/08/30 01:26:11;;;;;;;8.050001;7.249999;;;;;;;16.32;100;95762.3;;;;
2019/08/30 01:27:12;;;;;;;8.050001;7.249999;;;;;;;16.32;100;95762.3;;;;
2019/08/30 01:28:14;;;;;;;8.050001;7.249999;;;;;;;16.32;100;95762.3;;;;
2019/08/30 01:29:15;;;;;;;8.050001;7.249999;;;;;;;16.32;100;95762.3;;;;
2019/08/30 01:30:16;;;;;;;8.050001;7.249999;;;;;;;16.32;100;95762.3;;;;
2019/08/30 01:31:20;;;;;;;8.2;7.199999;;;;;;;16.3;100;95764.47;;;;
2019/08/30 01:32:22;;;;;;;8.2;7.199999;;;;;;;16.3;100;95764.47;;;;
2019/08/30 01:33:23;;;;;;;8.2;7.199999;;;;;;;16.3;100;95764.47;;;;
2019/08/30 01:34:25;;;;;;;8.2;7.199999;;;;;;;16.3;100;95764.47;;;;
2019/08/30 01:35:26;;;;;;;8.2;7.199999;;;;;;;16.3;100;95764.47;;;;
2019/08/30 01:36:28;;;;;;;8.2;7.199999;;;;;;;16.3;100;95764.47;;;;
2019/08/30 01:37:29;;;;;;;8.2;7.199999;;;;;;;16.3;100;95764.47;;;;
2019/08/30 01:38:30;;;;;;;8.2;7.199999;;;;;;;16.3;100;95764.47;;;;
2019/08/30 01:39:32;;;;;;;8.2;7.199999;;;;;;;16.3;100;95764.47;;;;
2019/08/30 01:40:33;;;;;;;8.2;7.199999;;;;;;;16.3;100;95764.47;;;;
2019/08/30 01:41:35;;;;;;;8.700001;7.45;;;;;;;16.26;100;95768.39;;;;
2019/08/30 01:42:37;;;;;;;8.700001;7.45;;;;;;;16.26;100;95768.39;;;;
2019/08/30 01:43:38;;;;;;;8.700001;7.45;;;;;;;16.26;100;95768.39;;;;
2019/08/30 01:44:39;;;;;;;8.700001;7.45;;;;;;;16.26;100;95768.39;;;;
2019/08/30 01:45:40;;;;;;;8.700001;7.45;;;;;;;16.26;100;95768.39;;;;
2019/08/30 01:46:42;;;;;;;8.700001;7.45;;;;;;;16.26;100;95768.39;;;;
2019/08/30 01:47:44;;;;;;;8.700001;7.45;;;;;;;16.26;100;95768.39;;;;
2019/08/30 01:48:45;;;;;;;8.700001;7.45;;;;;;;16.26;100;95768.39;;;;
2019/08/30 01:49:46;;;;;;;8.700001;7.45;;;;;;;16.26;100;95768.39;;;;
2019/08/30 01:50:47;;;;;;;8.700001;7.45;;;;;;;16.26;100;95768.39;;;;
2019/08/30 01:51:49;;;;;;;8.700001;7.45;;;;;;;16.26;100;95768.39;;;;
2019/08/30 01:52:50;;;;;;;7.600001;6.9;;;;;;;16.27;100;95764.46;;;;
2019/08/30 01:53:52;;;;;;;7.600001;6.9;;;;;;;16.27;100;95764.46;;;;
2019/08/30 01:54:53;;;;;;;7.600001;6.9;;;;;;;16.27;100;95764.46;;;;
2019/08/30 01:55:55;;;;;;;7.600001;6.9;;;;;;;16.27;100;95764.46;;;;
2019/08/30 01:56:57;;;;;;;7.600001;6.9;;;;;;;16.27;100;95764.46;;;;
2019/08/30 01:57:58;;;;;;;7.600001;6.9;;;;;;;16.27;100;95764.46;;;;
2019/08/30 01:58:59;;;;;;;7.600001;6.9;;;;;;;16.27;100;95764.46;;;;
2019/08/30 02:00:01;;;;;;;7.600001;6.9;;;;;;;16.27;100;95764.46;;;;
2019/08/30 02:01:03;;;;;;;7.600001;6.9;;;;;;;16.27;100;95764.46;;;;
2019/08/30 02:02:04;;;;;;;7.600001;6.9;;;;;;;16.27;100;95764.46;;;;
2019/08/30 02:03:06;;;;;;;9.95;6.9;;;;;;;16.19;100;95765.87;;;;
2019/08/30 02:04:07;;;;;;;9.95;6.9;;;;;;;16.19;100;95765.87;;;;
2019/08/30 02:05:08;;;;;;;9.95;6.9;;;;;;;16.19;100;95765.87;;;;
2019/08/30 02:06:11;;;;;;;9.95;6.9;;;;;;;16.19;100;95765.87;;;;
2019/08/30 02:07:12;;;;;;;9.95;6.9;;;;;;;16.19;100;95765.87;;;;
2019/08/30 02:08:14;;;;;;;9.95;6.9;;;;;;;16.19;100;95765.87;;;;
2019/08/30 02:09:15;;;;;;;9.95;6.9;;;;;;;16.19;100;95765.87;;;;
2019/08/30 02:10:16;;;;;;;9.95;6.9;;;;;;;16.19;100;95765.87;;;;
2019/08/30 02:11:18;;;;;;;9.95;6.9;;;;;;;16.19;100;95765.87;;;;
2019/08/30 02:12:19;;;;;;;9.95;6.9;;;;;;;16.19;100;95765.87;;;;
2019/08/30 02:13:21;;;;;;;8.15;6.95;;;;;;;16.11;100;95764.46;;;;
2019/08/30 02:14:22;;;;;;;8.15;6.95;;;;;;;16.11;100;95764.46;;;;
2019/08/30 02:15:23;;;;;;;8.15;6.95;;;;;;;16.11;100;95764.46;;;;
2019/08/30 02:16:25;;;;;;;8.15;6.95;;;;;;;16.11;100;95764.46;;;;
2019/08/30 02:17:26;;;;;;;8.15;6.95;;;;;;;16.11;100;95764.46;;;;
2019/08/30 02:18:27;;;;;;;8.15;6.95;;;;;;;16.11;100;95764.46;;;;
2019/08/30 02:19:28;;;;;;;8.15;6.95;;;;;;;16.11;100;95764.46;;;;
2019/08/30 02:20:30;;;;;;;8.15;6.95;;;;;;;16.11;100;95764.46;;;;
2019/08/30 02:21:33;;;;;;;8.15;6.95;;;;;;;16.11;100;95764.46;;;;
2019/08/30 02:22:34;;;;;;;8.15;6.95;;;;;;;16.11;100;95764.46;;;;
2019/08/30 02:23:36;;;;;;;8.15;6.95;;;;;;;16.11;100;95764.46;;;;
2019/08/30 02:24:37;;;;;;;10.05;7.749999;;;;;;;15.97;100;95757.9;;;;
2019/08/30 02:25:38;;;;;;;10.05;7.749999;;;;;;;15.97;100;95757.9;;;;
2019/08/30 02:26:40;;;;;;;10.05;7.749999;;;;;;;15.97;100;95757.9;;;;
2019/08/30 02:27:41;;;;;;;10.05;7.749999;;;;;;;15.97;100;95757.9;;;;
2019/08/30 02:28:43;;;;;;;10.05;7.749999;;;;;;;15.97;100;95757.9;;;;
2019/08/30 02:29:44;;;;;;;10.05;7.749999;;;;;;;15.97;100;95757.9;;;;
2019/08/30 02:30:45;;;;;;;10.05;7.749999;;;;;;;15.97;100;95757.9;;;;
2019/08/30 02:31:46;;;;;;;10.05;7.749999;;;;;;;15.97;100;95757.9;;;;
2019/08/30 02:32:48;;;;;;;10.05;7.749999;;;;;;;15.97;100;95757.9;;;;
2019/08/30 02:33:49;;;;;;;10.05;7.749999;;;;;;;15.97;100;95757.9;;;;
2019/08/30 02:34:50;;;;;;;8.4;7.600001;;;;;;;15.89;100;95762.44;;;;
2019/08/30 02:35:51;;;;;;;8.4;7.600001;;;;;;;15.89;100;95762.44;;;;
2019/08/30 02:36:52;;;;;;;8.4;7.600001;;;;;;;15.89;100;95762.44;;;;
2019/08/30 02:37:54;;;;;;;8.4;7.600001;;;;;;;15.89;100;95762.44;;;;
2019/08/30 02:38:55;;;;;;;8.4;7.600001;;;;;;;15.89;100;95762.44;;;;
2019/08/30 02:39:56;;;;;;;8.4;7.600001;;;;;;;15.89;100;95762.44;;;;
2019/08/30 02:40:57;;;;;;;8.4;7.600001;;;;;;;15.89;100;95762.44;;;;
2019/08/30 02:41:59;;;;;;;8.4;7.600001;;;;;;;15.89;100;95762.44;;;;
2019/08/30 02:43:00;;;;;;;8.4;7.600001;;;;;;;15.89;100;95762.44;;;;
2019/08/30 02:44:01;;;;;;;8.4;7.600001;;;;;;;15.89;100;95762.44;;;;
2019/08/30 02:45:02;;;;;;;8.4;7.600001;;;;;;;15.89;100;95762.44;;;;
2019/08/30 02:46:05;;;;;;;8.799998;7.95;;;;;;;15.78;100;95760.58;;;;
2019/08/30 02:47:06;;;;;;;8.799998;7.95;;;;;;;15.78;100;95760.58;;;;
2019/08/30 02:48:10;;;;;;;8.799998;7.95;;;;;;;15.78;100;95760.58;;;;
2019/08/30 02:49:13;;;;;;;8.799998;7.95;;;;;;;15.78;100;95760.58;;;;
2019/08/30 02:50:14;;;;;;;8.799998;7.95;;;;;;;15.78;100;95760.58;;;;
2019/08/30 02:51:17;;;;;;;8.799998;7.95;;;;;;;15.78;100;95760.58;;;;
2019/08/30 02:52:18;;;;;;;8.799998;7.95;;;;;;;15.78;100;95760.58;;;;
2019/08/30 02:53:19;;;;;;;8.799998;7.95;;;;;;;15.78;100;95760.58;;;;
2019/08/30 02:54:20;;;;;;;8.799998;7.95;;;;;;;15.78;100;95760.58;;;;
2019/08/30 02:55:22;;;;;;;8.799998;7.95;;;;;;;15.78;100;95760.58;;;;
2019/08/30 02:56:24;;;;;;;8.799998;7.95;;;;;;;15.78;100;95760.58;;;;
2019/08/30 02:57:25;;;;;;;8.799998;7.95;;;;;;;15.78;100;95760.58;;;;
2019/08/30 02:58:26;;;;;;;8.799998;7.95;;;;;;;15.78;100;95760.58;;;;
2019/08/30 02:59:27;;;;;;;8.799998;7.95;;;;;;;15.78;100;95760.58;;;;
2019/08/30 03:00:28;;;;;;;8.799998;7.95;;;;;;;15.78;100;95760.58;;;;
2019/08/30 03:01:33;;;;;;;8.799998;7.95;;;;;;;15.78;100;95760.58;;;;
2019/08/30 03:02:35;;;;;;;8.799998;7.95;;;;;;;15.78;100;95760.58;;;;
2019/08/30 03:03:36;;;;;;;8.799998;7.95;;;;;;;15.78;100;95760.58;;;;
2019/08/30 03:04:37;;;;;;;8.799998;7.95;;;;;;;15.78;100;95760.58;;;;
2019/08/30 03:05:38;;;;;;;8.799998;7.95;;;;;;;15.78;100;95760.58;;;;
2019/08/30 03:06:44;;;;;;;8.9;7.8;;;;;;;15.69;100;95763.47;;;;
2019/08/30 03:07:45;;;;;;;8.9;7.8;;;;;;;15.69;100;95763.47;;;;
2019/08/30 03:08:46;;;;;;;8.9;7.8;;;;;;;15.69;100;95763.47;;;;
2019/08/30 03:09:47;;;;;;;8.9;7.8;;;;;;;15.69;100;95763.47;;;;
2019/08/30 03:10:48;;;;;;;8.9;7.8;;;;;;;15.69;100;95763.47;;;;
2019/08/30 03:11:51;;;;;;;8.9;7.8;;;;;;;15.69;100;95763.47;;;;
2019/08/30 03:12:52;;;;;;;8.9;7.8;;;;;;;15.69;100;95763.47;;;;
2019/08/30 03:13:53;;;;;;;8.9;7.8;;;;;;;15.69;100;95763.47;;;;
2019/08/30 03:14:54;;;;;;;8.9;7.8;;;;;;;15.69;100;95763.47;;;;
2019/08/30 03:15:55;;;;;;;8.9;7.8;;;;;;;15.69;100;95763.47;;;;
2019/08/30 03:16:58;;;;;;;8.9;7.8;;;;;;;15.69;100;95763.47;;;;
2019/08/30 03:17:59;;;;;;;9.15;7.849999;;;;;;;15.6;100;95766.89;;;;
2019/08/30 03:19:00;;;;;;;9.15;7.849999;;;;;;;15.6;100;95766.89;;;;
2019/08/30 03:20:01;;;;;;;9.15;7.849999;;;;;;;15.6;100;95766.89;;;;
2019/08/30 03:21:03;;;;;;;9.15;7.849999;;;;;;;15.6;100;95766.89;;;;
2019/08/30 03:22:04;;;;;;;9.15;7.849999;;;;;;;15.6;100;95766.89;;;;
2019/08/30 03:23:05;;;;;;;9.15;7.849999;;;;;;;15.6;100;95766.89;;;;
2019/08/30 03:24:07;;;;;;;9.15;7.849999;;;;;;;15.6;100;95766.89;;;;
2019/08/30 03:25:08;;;;;;;9.15;7.849999;;;;;;;15.6;100;95766.89;;;;
2019/08/30 03:26:11;;;;;;;9.15;7.849999;;;;;;;15.6;100;95766.89;;;;
2019/08/30 03:27:12;;;;;;;9.15;7.849999;;;;;;;15.6;100;95766.89;;;;
2019/08/30 03:28:13;;;;;;;9.65;8;;;;;;;15.45;100;95773.95;;;;
2019/08/30 03:29:15;;;;;;;9.65;8;;;;;;;15.45;100;95773.95;;;;
2019/08/30 03:30:16;;;;;;;9.65;8;;;;;;;15.45;100;95773.95;;;;
2019/08/30 03:31:18;;;;;;;9.65;8;;;;;;;15.45;100;95773.95;;;;
2019/08/30 03:32:19;;;;;;;9.65;8;;;;;;;15.45;100;95773.95;;;;
2019/08/30 03:33:20;;;;;;;9.65;8;;;;;;;15.45;100;95773.95;;;;
2019/08/30 03:34:22;;;;;;;9.65;8;;;;;;;15.45;100;95773.95;;;;
2019/08/30 03:35:23;;;;;;;9.65;8;;;;;;;15.45;100;95773.95;;;;
2019/08/30 03:36:25;;;;;;;9.65;8;;;;;;;15.45;100;95773.95;;;;
2019/08/30 03:37:26;;;;;;;9.65;8;;;;;;;15.45;100;95773.95;;;;
2019/08/30 03:38:27;;;;;;;8.700001;7.85;;;;;;;15.34;100;95772.99;;;;
2019/08/30 03:39:28;;;;;;;8.700001;7.85;;;;;;;15.34;100;95772.99;;;;
2019/08/30 03:40:29;;;;;;;8.700001;7.85;;;;;;;15.34;100;95772.99;;;;
2019/08/30 03:41:32;;;;;;;8.700001;7.85;;;;;;;15.34;100;95772.99;;;;
2019/08/30 03:42:33;;;;;;;8.700001;7.85;;;;;;;15.34;100;95772.99;;;;
2019/08/30 03:43:34;;;;;;;8.700001;7.85;;;;;;;15.34;100;95772.99;;;;
2019/08/30 03:44:35;;;;;;;8.700001;7.85;;;;;;;15.34;100;95772.99;;;;
2019/08/30 03:45:36;;;;;;;8.700001;7.85;;;;;;;15.34;100;95772.99;;;;
2019/08/30 03:46:40;;;;;;;8.700001;7.85;;;;;;;15.34;100;95772.99;;;;
2019/08/30 03:47:41;;;;;;;8.700001;7.85;;;;;;;15.34;100;95772.99;;;;
2019/08/30 03:48:42;;;;;;;8.700001;7.85;;;;;;;15.34;100;95772.99;;;;
2019/08/30 03:49:43;;;;;;;9.349999;8.3;;;;;;;15.18;100;95782;;;;
2019/08/30 03:50:44;;;;;;;9.349999;8.3;;;;;;;15.18;100;95782;;;;
2019/08/30 03:51:46;;;;;;;9.349999;8.3;;;;;;;15.18;100;95782;;;;
2019/08/30 03:52:47;;;;;;;9.349999;8.3;;;;;;;15.18;100;95782;;;;
2019/08/30 03:53:48;;;;;;;9.349999;8.3;;;;;;;15.18;100;95782;;;;
2019/08/30 03:54:49;;;;;;;9.349999;8.3;;;;;;;15.18;100;95782;;;;
2019/08/30 03:55:51;;;;;;;9.349999;8.3;;;;;;;15.18;100;95782;;;;
2019/08/30 03:56:52;;;;;;;9.349999;8.3;;;;;;;15.18;100;95782;;;;
2019/08/30 03:57:53;;;;;;;9.349999;8.3;;;;;;;15.18;100;95782;;;;
2019/08/30 03:58:55;;;;;;;9.349999;8.3;;;;;;;15.18;100;95782;;;;
2019/08/30 03:59:56;;;;;;;9.349999;8.3;;;;;;;15.18;100;95782;;;;
2019/08/30 04:00:57;;;;;;;9.349999;8.3;;;;;;;15.18;100;95782;;;;
2019/08/30 04:01:59;;;;;;;9.349999;8.3;;;;;;;15.18;100;95782;;;;
2019/08/30 04:03:01;;;;;;;9.349999;8.3;;;;;;;15.18;100;95782;;;;
2019/08/30 04:04:02;;;;;;;9.349999;8.3;;;;;;;15.18;100;95782;;;;
2019/08/30 04:05:03;;;;;;;9.349999;8.3;;;;;;;15.18;100;95782;;;;
2019/08/30 04:06:05;;;;;;;9.349999;8.3;;;;;;;15.18;100;95782;;;;
2019/08/30 04:07:06;;;;;;;9.349999;8.3;;;;;;;15.18;100;95782;;;;
2019/08/30 04:08:08;;;;;;;9.349999;8.3;;;;;;;15.18;100;95782;;;;
2019/08/30 04:09:09;;;;;;;9.349999;8.3;;;;;;;15.18;100;95782;;;;
2019/08/30 04:10:10;;;;;;;9.349999;8.3;;;;;;;15.18;100;95782;;;;
2019/08/30 04:11:13;;;;;;;8.950001;8.049999;;;;;;;15.04;100;95793.38;;;;
2019/08/30 04:12:15;;;;;;;8.950001;8.049999;;;;;;;15.04;100;95793.38;;;;
2019/08/30 04:13:16;;;;;;;8.950001;8.049999;;;;;;;15.04;100;95793.38;;;;
2019/08/30 04:14:18;;;;;;;8.950001;8.049999;;;;;;;15.04;100;95793.38;;;;
2019/08/30 04:15:19;;;;;;;8.950001;8.049999;;;;;;;15.04;100;95793.38;;;;
2019/08/30 04:16:23;;;;;;;8.950001;8.049999;;;;;;;15.04;100;95793.38;;;;
2019/08/30 04:17:24;;;;;;;8.950001;8.049999;;;;;;;15.04;100;95793.38;;;;
2019/08/30 04:18:25;;;;;;;8.950001;8.049999;;;;;;;15.04;100;95793.38;;;;
2019/08/30 04:19:26;;;;;;;8.950001;8.049999;;;;;;;15.04;100;95793.38;;;;
2019/08/30 04:20:27;;;;;;;8.950001;8.049999;;;;;;;15.04;100;95793.38;;;;
2019/08/30 04:23:29;;;;;;;10.1;8.550001;;;;;;;14.92;100;95805.44;;;;
2019/08/30 04:24:30;;;;;;;10.1;8.550001;;;;;;;14.92;100;95805.44;;;;
2019/08/30 04:25:31;;;;;;;10.1;8.550001;;;;;;;14.92;100;95805.44;;;;
2019/08/30 04:26:33;;;;;;;10.1;8.550001;;;;;;;14.92;100;95805.44;;;;
2019/08/30 04:27:35;;;;;;;10.1;8.550001;;;;;;;14.92;100;95805.44;;;;
2019/08/30 04:28:36;;;;;;;10.1;8.550001;;;;;;;14.92;100;95805.44;;;;
2019/08/30 04:29:37;;;;;;;10.1;8.550001;;;;;;;14.92;100;95805.44;;;;
2019/08/30 04:30:38;;;;;;;10.1;8.550001;;;;;;;14.92;100;95805.44;;;;
2019/08/30 04:31:40;;;;;;;10.05;8.150002;;;;;;;14.8;100;95821.88;;;;
2019/08/30 04:32:41;;;;;;;10.05;8.150002;;;;;;;14.8;100;95821.88;;;;
2019/08/30 04:33:42;;;;;;;10.05;8.150002;;;;;;;14.8;100;95821.88;;;;
2019/08/30 04:34:43;;;;;;;10.05;8.150002;;;;;;;14.8;100;95821.88;;;;
2019/08/30 04:35:45;;;;;;;10.05;8.150002;;;;;;;14.8;100;95821.88;;;;
2019/08/30 04:36:46;;;;;;;10.05;8.150002;;;;;;;14.8;100;95821.88;;;;
2019/08/30 04:37:47;;;;;;;10.05;8.150002;;;;;;;14.8;100;95821.88;;;;
2019/08/30 04:38:48;;;;;;;10.05;8.150002;;;;;;;14.8;100;95821.88;;;;
2019/08/30 04:39:50;;;;;;;10.05;8.150002;;;;;;;14.8;100;95821.88;;;;
2019/08/30 04:40:51;;;;;;;10.05;8.150002;;;;;;;14.8;100;95821.88;;;;
2019/08/30 04:41:55;;;;;;;10.05;8.150002;;;;;;;14.8;100;95821.88;;;;
2019/08/30 04:42:56;;;;;;;12.75;9.049999;;;;;;;14.84;100;95840.81;;;;
2019/08/30 04:43:57;;;;;;;12.75;9.049999;;;;;;;14.84;100;95840.81;;;;
2019/08/30 04:44:58;;;;;;;12.75;9.049999;;;;;;;14.84;100;95840.81;;;;
2019/08/30 04:46:00;;;;;;;12.75;9.049999;;;;;;;14.84;100;95840.81;;;;
2019/08/30 04:47:01;;;;;;;12.75;9.049999;;;;;;;14.84;100;95840.81;;;;
2019/08/30 04:48:02;;;;;;;12.75;9.049999;;;;;;;14.84;100;95840.81;;;;
2019/08/30 04:49:03;;;;;;;12.75;9.049999;;;;;;;14.84;100;95840.81;;;;
2019/08/30 04:50:04;;;;;;;12.75;9.049999;;;;;;;14.84;100;95840.81;;;;
2019/08/30 04:51:06;;;;;;;12.75;9.049999;;;;;;;14.84;100;95840.81;;;;
2019/08/30 04:52:08;;;;;;;12.75;9.049999;;;;;;;14.84;100;95840.81;;;;
2019/08/30 04:53:09;;;;;;;11;9.5;;;;;;;14.85;100;95845.15;;;;
2019/08/30 04:54:10;;;;;;;11;9.5;;;;;;;14.85;100;95845.15;;;;
2019/08/30 04:55:11;;;;;;;11;9.5;;;;;;;14.85;100;95845.15;;;;
2019/08/30 04:56:14;;;;;;;11;9.5;;;;;;;14.85;100;95845.15;;;;
2019/08/30 04:57:15;;;;;;;11;9.5;;;;;;;14.85;100;95845.15;;;;
2019/08/30 04:58:17;;;;;;;11;9.5;;;;;;;14.85;100;95845.15;;;;
2019/08/30 04:59:18;;;;;;;11;9.5;;;;;;;14.85;100;95845.15;;;;
2019/08/30 05:00:19;;;;;;;11;9.5;;;;;;;14.85;100;95845.15;;;;
2019/08/30 05:01:21;;;;;;;11;9.5;;;;;;;14.85;100;95845.15;;;;
2019/08/30 05:02:22;;;;;;;11;9.5;;;;;;;14.85;100;95845.15;;;;
2019/08/30 05:03:24;;;;;;;11;9.5;;;;;;;14.85;100;95845.15;;;;
2019/08/30 05:04:25;;;;;;;10.3;9.250001;;;;;;;14.97;100;95842.22;;;;
2019/08/30 05:05:26;;;;;;;10.3;9.250001;;;;;;;14.97;100;95842.22;;;;
2019/08/30 05:06:28;;;;;;;10.3;9.250001;;;;;;;14.97;100;95842.22;;;;
2019/08/30 05:07:29;;;;;;;10.3;9.250001;;;;;;;14.97;100;95842.22;;;;
2019/08/30 05:08:30;;;;;;;10.3;9.250001;;;;;;;14.97;100;95842.22;;;;
2019/08/30 05:09:31;;;;;;;10.3;9.250001;;;;;;;14.97;100;95842.22;;;;
2019/08/30 05:10:32;;;;;;;10.3;9.250001;;;;;;;14.97;100;95842.22;;;;
2019/08/30 05:13:34;;;;;;;10.3;9.250001;;;;;;;14.97;100;95842.22;;;;
2019/08/30 05:14:36;;;;;;;10.6;9.200001;;;;;;;15.1;100;95849.51;;;;
2019/08/30 05:15:37;;;;;;;10.6;9.200001;;;;;;;15.1;100;95849.51;;;;
2019/08/30 05:16:39;;;;;;;10.6;9.200001;;;;;;;15.1;100;95849.51;;;;
2019/08/30 05:17:40;;;;;;;10.6;9.200001;;;;;;;15.1;100;95849.51;;;;
2019/08/30 05:18:41;;;;;;;10.6;9.200001;;;;;;;15.1;100;95849.51;;;;
2019/08/30 05:19:42;;;;;;;10.6;9.200001;;;;;;;15.1;100;95849.51;;;;
2019/08/30 05:20:43;;;;;;;10.6;9.200001;;;;;;;15.1;100;95849.51;;;;
2019/08/30 05:21:45;;;;;;;10.6;9.200001;;;;;;;15.1;100;95849.51;;;;
2019/08/30 05:22:46;;;;;;;10.6;9.200001;;;;;;;15.1;100;95849.51;;;;
2019/08/30 05:23:47;;;;;;;10.6;9.200001;;;;;;;15.1;100;95849.51;;;;
2019/08/30 05:24:48;;;;;;;11.9;9.65;;;;;;;15.39;100;95862.84;;;;
2019/08/30 05:25:49;;;;;;;11.9;9.65;;;;;;;15.39;100;95862.84;;;;
2019/08/30 05:26:51;;;;;;;11.9;9.65;;;;;;;15.39;100;95862.84;;;;
2019/08/30 05:27:52;;;;;;;11.9;9.65;;;;;;;15.39;100;95862.84;;;;
2019/08/30 05:28:53;;;;;;;11.9;9.65;;;;;;;15.39;100;95862.84;;;;
2019/08/30 05:29:54;;;;;;;11.9;9.65;;;;;;;15.39;100;95862.84;;;;
2019/08/30 05:30:55;;;;;;;11.9;9.65;;;;;;;15.39;100;95862.84;;;;
2019/08/30 05:31:56;;;;;;;11.9;9.65;;;;;;;15.39;100;95862.84;;;;
2019/08/30 05:32:57;;;;;;;11.9;9.65;;;;;;;15.39;100;95862.84;;;;
2019/08/30 05:33:59;;;;;;;11.9;9.65;;;;;;;15.39;100;95862.84;;;;
2019/08/30 05:35:00;;;;;;;11.9;9.65;;;;;;;15.39;100;95862.84;;;;
2019/08/30 05:36:01;;;;;;;11.55;9.749999;;;;;;;15.66;100;95864.31;;;;
2019/08/30 05:37:03;;;;;;;11.55;9.749999;;;;;;;15.66;100;95864.31;;;;
2019/08/30 05:38:04;;;;;;;11.55;9.749999;;;;;;;15.66;100;95864.31;;;;
2019/08/30 05:39:05;;;;;;;11.55;9.749999;;;;;;;15.66;100;95864.31;;;;
2019/08/30 05:40:07;;;;;;;11.55;9.749999;;;;;;;15.66;100;95864.31;;;;
2019/08/30 05:41:08;;;;;;;11.55;9.749999;;;;;;;15.66;100;95864.31;;;;
2019/08/30 05:42:10;;;;;;;11.55;9.749999;;;;;;;15.66;100;95864.31;;;;
2019/08/30 05:43:11;;;;;;;11.55;9.749999;;;;;;;15.66;100;95864.31;;;;
2019/08/30 05:44:12;;;;;;;11.55;9.749999;;;;;;;15.66;100;95864.31;;;;
2019/08/30 05:45:13;;;;;;;11.55;9.749999;;;;;;;15.66;100;95864.31;;;;
2019/08/30 05:46:16;;;;;;;10.35;9.2;;;;;;;16.07;100;95882.36;;;;
2019/08/30 05:47:17;;;;;;;10.35;9.2;;;;;;;16.07;100;95882.36;;;;
2019/08/30 05:48:18;;;;;;;10.35;9.2;;;;;;;16.07;100;95882.36;;;;
2019/08/30 05:49:20;;;;;;;10.35;9.2;;;;;;;16.07;100;95882.36;;;;
2019/08/30 05:50:21;;;;;;;10.35;9.2;;;;;;;16.07;100;95882.36;;;;
2019/08/30 05:51:26;;;;;;;10.35;9.2;;;;;;;16.07;100;95882.36;;;;
2019/08/30 05:52:27;;;;;;;10.35;9.2;;;;;;;16.07;100;95882.36;;;;
2019/08/30 05:53:28;;;;;;;10.35;9.2;;;;;;;16.07;100;95882.36;;;;
2019/08/30 05:54:29;;;;;;;10.35;9.2;;;;;;;16.07;100;95882.36;;;;
2019/08/30 05:55:30;;;;;;;10.35;9.2;;;;;;;16.07;100;95882.36;;;;
2019/08/30 05:56:32;;;;;;;9.65;8.700001;;;;;;;16.5;100;95883.25;;;;
2019/08/30 05:57:33;;;;;;;9.65;8.700001;;;;;;;16.5;100;95883.25;;;;
2019/08/30 05:58:34;;;;;;;9.65;8.700001;;;;;;;16.5;100;95883.25;;;;
2019/08/30 05:59:35;;;;;;;9.65;8.700001;;;;;;;16.5;100;95883.25;;;;
2019/08/30 06:00:36;;;;;;;9.65;8.700001;;;;;;;16.5;100;95883.25;;;;
2019/08/30 06:01:40;;;;;;;9.65;8.700001;;;;;;;16.5;100;95883.25;;;;
2019/08/30 06:02:41;;;;;;;9.65;8.700001;;;;;;;16.5;100;95883.25;;;;
2019/08/30 06:03:43;;;;;;;9.65;8.700001;;;;;;;16.5;100;95883.25;;;;
2019/08/30 06:04:44;;;;;;;9.65;8.700001;;;;;;;16.5;100;95883.25;;;;
2019/08/30 06:05:45;;;;;;;9.65;8.700001;;;;;;;16.5;100;95883.25;;;;
2019/08/30 06:06:46;;;;;;;9.65;8.700001;;;;;;;16.5;100;95883.25;;;;
2019/08/30 06:07:47;;;;;;;9.399999;8.399999;;;;;;;17.03;100;95886.86;;;;
2019/08/30 06:08:49;;;;;;;9.399999;8.399999;;;;;;;17.03;100;95886.86;;;;
2019/08/30 06:09:50;;;;;;;9.399999;8.399999;;;;;;;17.03;100;95886.86;;;;
2019/08/30 06:10:51;;;;;;;9.399999;8.399999;;;;;;;17.03;100;95886.86;;;;